createdAt,value
2018-06-09T00:01:59.502Z,53.60
2018-06-09T00:04:28.006Z,53.70
2018-06-09T00:06:56.559Z,53.60
2018-06-09T00:09:25.075Z,53.60
2018-06-09T00:11:53.597Z,53.50
2018-06-09T00:14:22.106Z,53.50
2018-06-09T00:16:50.686Z,53.80
2018-06-09T00:19:19.212Z,53.80
2018-06-09T00:21:47.786Z,53.90
2018-06-09T00:24:16.324Z,53.90
2018-06-09T00:26:44.838Z,54.00
2018-06-09T00:29:13.377Z,54.00
2018-06-09T00:31:41.861Z,54.10
2018-06-09T00:34:10.457Z,54.20
2018-06-09T00:36:38.996Z,54.30
2018-06-09T00:39:08.482Z,54.30
2018-06-09T00:41:37.022Z,54.30
2018-06-09T00:44:05.584Z,54.40
2018-06-09T00:46:34.094Z,54.30
2018-06-09T00:49:02.577Z,54.40
2018-06-09T00:51:31.197Z,54.40
2018-06-09T00:53:59.937Z,54.30
2018-06-09T00:56:39.528Z,54.40
2018-06-09T00:59:08.069Z,54.50
2018-06-09T01:01:36.961Z,54.80
2018-06-09T01:04:05.929Z,54.60
2018-06-09T01:06:34.551Z,54.70
2018-06-09T01:09:03.404Z,54.90
2018-06-09T01:11:32.519Z,54.80
2018-06-09T01:14:01.075Z,54.70
2018-06-09T01:16:29.627Z,54.80
2018-06-09T01:18:58.488Z,54.70
2018-06-09T01:21:27.097Z,54.70
2018-06-09T01:23:55.626Z,54.60
2018-06-09T01:26:24.153Z,54.60
2018-06-09T01:28:52.688Z,54.60
2018-06-09T01:31:21.215Z,54.50
2018-06-09T01:33:49.782Z,54.50
2018-06-09T01:36:18.354Z,54.50
2018-06-09T01:38:46.895Z,54.50
2018-06-09T01:41:15.406Z,54.50
2018-06-09T01:43:43.932Z,54.50
2018-06-09T01:46:12.484Z,54.60
2018-06-09T01:48:40.966Z,54.70
2018-06-09T01:51:09.464Z,54.60
2018-06-09T01:53:37.913Z,54.70
2018-06-09T01:56:06.421Z,54.80
2018-06-09T01:58:34.910Z,54.80
2018-06-09T02:01:03.461Z,54.90
2018-06-09T02:03:31.917Z,55.00
2018-06-09T02:06:00.399Z,55.00
2018-06-09T02:08:28.869Z,55.00
2018-06-09T02:10:57.304Z,55.00
2018-06-09T02:13:25.819Z,55.00
2018-06-09T02:15:54.271Z,55.00
2018-06-09T02:18:22.777Z,55.00
2018-06-09T02:20:51.255Z,55.10
2018-06-09T02:23:19.786Z,55.10
2018-06-09T02:25:48.239Z,55.10
2018-06-09T02:28:16.685Z,55.20
2018-06-09T02:30:45.138Z,55.20
2018-06-09T02:33:13.851Z,55.10
2018-06-09T02:35:42.286Z,55.20
2018-06-09T02:38:10.818Z,55.20
2018-06-09T02:40:39.252Z,55.30
2018-06-09T02:43:07.687Z,55.30
2018-06-09T02:45:36.191Z,55.30
2018-06-09T02:48:04.664Z,55.40
2018-06-09T02:50:33.182Z,55.40
2018-06-09T02:53:01.627Z,55.40
2018-06-09T02:55:30.131Z,55.40
2018-06-09T02:57:58.575Z,55.40
2018-06-09T03:00:27.159Z,55.40
2018-06-09T03:02:55.633Z,55.40
2018-06-09T03:05:24.126Z,55.40
2018-06-09T03:07:52.570Z,55.50
2018-06-09T03:10:21.083Z,55.50
2018-06-09T03:12:49.576Z,55.50
2018-06-09T03:15:18.087Z,55.50
2018-06-09T03:17:46.583Z,55.60
2018-06-09T03:20:15.035Z,55.60
2018-06-09T03:22:43.491Z,55.60
2018-06-09T03:25:11.960Z,55.60
2018-06-09T03:27:40.409Z,56.20
2018-06-09T03:30:08.903Z,55.60
2018-06-09T03:32:37.441Z,55.60
2018-06-09T03:35:05.909Z,55.70
2018-06-09T03:37:34.442Z,55.70
2018-06-09T03:40:03.146Z,55.60
2018-06-09T03:42:31.578Z,55.60
2018-06-09T03:45:00.075Z,55.60
2018-06-09T03:47:28.566Z,55.70
2018-06-09T03:49:57.009Z,55.70
2018-06-09T03:52:25.512Z,56.30
2018-06-09T03:54:54.032Z,55.70
2018-06-09T03:57:22.517Z,56.30
2018-06-09T03:59:50.991Z,55.80
2018-06-09T04:02:19.507Z,55.80
2018-06-09T04:04:47.971Z,55.80
2018-06-09T04:07:16.467Z,55.80
2018-06-09T04:09:44.944Z,55.90
2018-06-09T04:12:13.426Z,55.90
2018-06-09T04:14:41.892Z,56.00
2018-06-09T04:17:10.399Z,56.00
2018-06-09T04:19:38.911Z,56.10
2018-06-09T04:22:08.248Z,56.10
2018-06-09T04:24:36.719Z,56.10
2018-06-09T04:27:05.319Z,56.10
2018-06-09T04:29:33.801Z,56.10
2018-06-09T04:32:02.249Z,56.10
2018-06-09T04:34:30.736Z,56.10
2018-06-09T04:36:59.235Z,56.20
2018-06-09T04:39:27.697Z,56.20
2018-06-09T04:41:56.205Z,56.30
2018-06-09T04:44:24.689Z,56.30
2018-06-09T04:46:53.157Z,56.40
2018-06-09T04:49:21.667Z,56.40
2018-06-09T04:54:18.391Z,57.00
2018-06-09T04:56:46.939Z,56.40
2018-06-09T04:59:15.432Z,56.40
2018-06-09T05:01:43.940Z,56.40
2018-06-09T05:04:12.481Z,56.50
2018-06-09T05:06:40.956Z,56.50
2018-06-09T05:09:09.470Z,56.50
2018-06-09T05:11:37.946Z,56.60
2018-06-09T05:14:06.474Z,56.50
2018-06-09T05:16:35.030Z,56.50
2018-06-09T05:19:03.544Z,56.60
2018-06-09T05:21:32.056Z,56.70
2018-06-09T05:24:00.551Z,56.60
2018-06-09T05:26:29.024Z,56.70
2018-06-09T05:28:57.509Z,56.80
2018-06-09T05:31:26.031Z,56.80
2018-06-09T05:33:54.499Z,56.80
2018-06-09T05:36:22.979Z,56.80
2018-06-09T05:38:51.424Z,56.90
2018-06-09T05:41:19.930Z,56.80
2018-06-09T05:43:48.431Z,56.90
2018-06-09T05:46:16.884Z,56.90
2018-06-09T05:48:45.351Z,56.90
2018-06-09T05:51:13.828Z,56.90
2018-06-09T05:53:42.299Z,56.90
2018-06-09T05:56:10.719Z,56.70
2018-06-09T05:58:39.191Z,56.70
2018-06-09T06:01:07.639Z,56.70
2018-06-09T06:03:36.077Z,56.80
2018-06-09T06:06:04.546Z,56.80
2018-06-09T06:08:33.008Z,56.70
2018-06-09T06:11:01.494Z,56.60
2018-06-09T06:13:29.961Z,56.50
2018-06-09T06:15:58.431Z,56.60
2018-06-09T06:18:26.879Z,56.50
2018-06-09T06:20:55.368Z,56.40
2018-06-09T06:23:23.856Z,56.40
2018-06-09T06:25:52.307Z,56.40
2018-06-09T06:28:20.773Z,56.30
2018-06-09T06:30:49.254Z,56.20
2018-06-09T06:33:17.887Z,56.60
2018-06-09T06:35:46.345Z,56.20
2018-06-09T06:38:14.851Z,56.10
2018-06-09T06:40:43.301Z,56.00
2018-06-09T06:43:12.084Z,56.10
2018-06-09T06:45:40.731Z,56.10
2018-06-09T06:48:09.228Z,56.00
2018-06-09T06:50:37.665Z,56.00
2018-06-09T06:53:06.169Z,56.00
2018-06-09T06:55:34.620Z,55.90
2018-06-09T06:58:03.177Z,55.90
2018-06-09T07:00:31.693Z,55.80
2018-06-09T07:03:00.109Z,55.70
2018-06-09T07:05:29.218Z,55.80
2018-06-09T07:07:58.774Z,55.80
2018-06-09T07:10:27.260Z,55.60
2018-06-09T07:12:57.152Z,55.60
2018-06-09T07:15:25.621Z,55.60
2018-06-09T07:17:54.133Z,55.60
2018-06-09T07:20:22.608Z,55.50
2018-06-09T07:22:51.131Z,55.40
2018-06-09T07:25:19.628Z,55.40
2018-06-09T07:27:48.144Z,55.80
2018-06-09T07:30:16.566Z,55.20
2018-06-09T07:32:45.235Z,55.00
2018-06-09T07:35:13.753Z,55.00
2018-06-09T07:37:42.223Z,55.00
2018-06-09T07:40:10.654Z,55.00
2018-06-09T07:42:39.274Z,54.90
2018-06-09T07:45:07.733Z,54.70
2018-06-09T07:47:36.205Z,54.70
2018-06-09T07:50:04.705Z,54.60
2018-06-09T07:52:33.177Z,54.40
2018-06-09T07:55:01.652Z,54.30
2018-06-09T07:57:30.063Z,54.20
2018-06-09T07:59:58.522Z,54.00
2018-06-09T08:02:27.003Z,53.90
2018-06-09T08:04:55.448Z,53.80
2018-06-09T08:07:23.972Z,53.70
2018-06-09T08:09:52.406Z,53.60
2018-06-09T08:12:20.836Z,53.50
2018-06-09T08:14:49.279Z,53.30
2018-06-09T08:17:17.760Z,53.40
2018-06-09T08:19:46.257Z,53.20
2018-06-09T08:22:14.709Z,53.20
2018-06-09T08:24:43.179Z,53.00
2018-06-09T08:27:11.627Z,53.00
2018-06-09T08:29:40.123Z,52.90
2018-06-09T08:32:08.567Z,52.80
2018-06-09T08:34:37.052Z,52.70
2018-06-09T08:37:05.515Z,52.60
2018-06-09T08:39:33.982Z,52.40
2018-06-09T08:42:02.497Z,52.40
2018-06-09T08:44:30.975Z,52.20
2018-06-09T08:46:59.428Z,51.90
2018-06-09T08:49:27.852Z,51.60
2018-06-09T08:51:56.356Z,51.30
2018-06-09T08:54:24.813Z,51.20
2018-06-09T08:56:53.380Z,50.90
2018-06-09T08:59:21.808Z,50.70
2018-06-09T09:01:50.324Z,50.60
2018-06-09T09:04:18.755Z,50.40
2018-06-09T09:06:47.223Z,50.20
2018-06-09T09:09:15.672Z,50.10
2018-06-09T09:11:44.224Z,49.90
2018-06-09T09:14:12.808Z,49.70
2018-06-09T09:16:41.313Z,49.40
2018-06-09T09:19:09.849Z,49.00
2018-06-09T09:21:38.288Z,49.00
2018-06-09T09:24:06.890Z,49.10
2018-06-09T09:26:35.383Z,49.10
2018-06-09T09:29:03.871Z,48.90
2018-06-09T09:31:32.358Z,48.70
2018-06-09T09:34:00.856Z,48.50
2018-06-09T09:36:29.347Z,48.30
2018-06-09T09:38:57.821Z,48.20
2018-06-09T09:41:26.271Z,48.00
2018-06-09T09:43:54.792Z,47.60
2018-06-09T09:46:23.322Z,47.50
2018-06-09T09:48:51.767Z,47.30
2018-06-09T09:51:20.254Z,47.20
2018-06-09T09:53:48.766Z,47.00
2018-06-09T09:56:17.327Z,47.20
2018-06-09T09:58:45.813Z,46.60
2018-06-09T10:01:14.336Z,46.70
2018-06-09T10:03:42.776Z,46.40
2018-06-09T10:06:11.248Z,46.20
2018-06-09T10:08:39.703Z,46.20
2018-06-09T10:11:08.200Z,46.10
2018-06-09T10:13:36.723Z,46.00
2018-06-09T10:16:05.328Z,45.90
2018-06-09T10:18:33.826Z,45.80
2018-06-09T10:21:02.374Z,45.70
2018-06-09T10:23:30.835Z,45.60
2018-06-09T10:25:59.333Z,45.50
2018-06-09T10:28:27.763Z,45.30
2018-06-09T10:30:56.205Z,45.10
2018-06-09T10:33:24.656Z,44.80
2018-06-09T10:35:53.126Z,44.70
2018-06-09T10:38:21.602Z,44.50
2018-06-09T10:40:50.075Z,44.40
2018-06-09T10:43:18.551Z,44.20
2018-06-09T10:45:47.028Z,44.00
2018-06-09T10:48:15.536Z,44.00
2018-06-09T10:50:44.031Z,44.50
2018-06-09T10:53:12.521Z,43.90
2018-06-09T10:55:41.015Z,43.90
2018-06-09T10:58:09.589Z,43.90
2018-06-09T11:00:37.991Z,44.10
2018-06-09T11:03:06.476Z,44.20
2018-06-09T11:05:34.964Z,44.20
2018-06-09T11:08:03.423Z,44.10
2018-06-09T11:10:31.930Z,44.00
2018-06-09T11:13:00.459Z,43.80
2018-06-09T11:15:28.989Z,43.60
2018-06-09T11:17:57.423Z,43.50
2018-06-09T11:20:25.938Z,43.40
2018-06-09T11:22:54.390Z,43.30
2018-06-09T11:25:22.847Z,43.20
2018-06-09T11:27:51.371Z,42.90
2018-06-09T11:30:19.872Z,42.80
2018-06-09T11:32:48.654Z,42.70
2018-06-09T11:35:17.143Z,42.60
2018-06-09T11:37:45.596Z,42.40
2018-06-09T11:40:14.141Z,42.30
2018-06-09T11:42:42.593Z,42.30
2018-06-09T11:45:11.081Z,42.30
2018-06-09T11:47:39.502Z,42.10
2018-06-09T11:50:08.039Z,41.90
2018-06-09T11:52:36.469Z,41.80
2018-06-09T11:55:04.956Z,41.80
2018-06-09T11:57:33.464Z,41.80
2018-06-09T12:00:01.986Z,41.80
2018-06-09T12:02:30.493Z,41.50
2018-06-09T12:04:58.961Z,41.40
2018-06-09T12:07:27.407Z,41.30
2018-06-09T12:09:55.882Z,41.30
2018-06-09T12:12:24.350Z,41.40
2018-06-09T12:14:52.820Z,41.30
2018-06-09T12:17:21.479Z,41.20
2018-06-09T12:19:50.032Z,41.10
2018-06-09T12:22:18.595Z,41.00
2018-06-09T12:24:47.211Z,40.70
2018-06-09T12:27:15.724Z,40.50
2018-06-09T12:29:44.720Z,40.40
2018-06-09T12:32:13.276Z,40.30
2018-06-09T12:34:41.770Z,40.20
2018-06-09T12:37:10.315Z,40.00
2018-06-09T12:39:38.833Z,40.00
2018-06-09T12:42:07.307Z,39.90
2018-06-09T12:47:04.123Z,39.70
2018-06-09T12:49:32.607Z,39.70
2018-06-09T12:52:02.317Z,39.50
2018-06-09T12:54:31.599Z,39.40
2018-06-09T12:57:06.701Z,39.30
2018-06-09T12:59:35.298Z,39.30
2018-06-09T13:02:03.843Z,39.20
2018-06-09T13:04:33.585Z,39.10
2018-06-09T13:07:04.110Z,39.10
2018-06-09T13:09:33.713Z,38.80
2018-06-09T13:12:02.827Z,38.80
2018-06-09T13:14:33.894Z,38.70
2018-06-09T13:17:02.731Z,38.70
2018-06-09T13:19:32.337Z,38.50
2018-06-09T13:22:07.950Z,38.30
2018-06-09T13:24:43.726Z,38.10
2018-06-09T13:27:18.044Z,38.10
2018-06-09T13:29:46.839Z,38.00
2018-06-09T13:32:15.465Z,37.90
2018-06-09T13:34:44.244Z,37.80
2018-06-09T13:37:12.859Z,37.80
2018-06-09T13:42:10.205Z,37.70
2018-06-09T13:44:38.695Z,37.60
2018-06-09T13:47:07.542Z,37.40
2018-06-09T13:49:36.390Z,37.30
2018-06-09T13:52:05.113Z,37.20
2018-06-09T13:54:33.759Z,37.20
2018-06-09T13:57:02.669Z,37.20
2018-06-09T13:59:31.211Z,37.10
2018-06-09T14:02:01.252Z,37.10
2018-06-09T14:04:30.699Z,37.20
2018-06-09T14:06:59.568Z,37.10
2018-06-09T14:09:28.026Z,37.00
2018-06-09T14:11:56.503Z,37.00
2018-06-09T14:14:24.980Z,36.80
2018-06-09T14:16:53.676Z,36.80
2018-06-09T14:19:22.368Z,36.80
2018-06-09T14:21:51.716Z,36.80
2018-06-09T14:24:20.202Z,36.80
2018-06-09T14:26:48.837Z,36.80
2018-06-09T14:29:17.345Z,36.80
2018-06-09T14:31:45.801Z,36.80
2018-06-09T14:34:14.314Z,36.90
2018-06-09T14:36:42.763Z,36.90
2018-06-09T14:39:11.242Z,36.80
2018-06-09T14:41:39.716Z,36.90
2018-06-09T14:44:09.258Z,37.50
2018-06-09T14:46:37.758Z,36.90
2018-06-09T14:49:06.603Z,36.90
2018-06-09T14:51:35.066Z,37.00
2018-06-09T14:54:05.094Z,36.90
2018-06-09T14:56:33.657Z,36.80
2018-06-09T14:59:02.103Z,36.80
2018-06-09T15:03:58.743Z,37.00
2018-06-09T15:06:27.266Z,37.00
2018-06-09T15:08:57.334Z,37.00
2018-06-09T15:11:26.096Z,37.00
2018-06-09T15:13:54.757Z,37.00
2018-06-09T15:16:23.305Z,36.90
2018-06-09T15:18:52.204Z,36.80
2018-06-09T15:21:20.976Z,36.90
2018-06-09T15:23:49.451Z,36.90
2018-06-09T15:26:17.968Z,36.80
2018-06-09T15:28:46.422Z,37.00
2018-06-09T15:31:14.936Z,37.00
2018-06-09T15:33:43.411Z,36.90
2018-06-09T15:36:12.814Z,37.00
2018-06-09T15:38:47.619Z,36.90
2018-06-09T15:41:16.236Z,36.90
2018-06-09T15:43:46.899Z,37.00
2018-06-09T15:46:16.706Z,36.90
2018-06-09T15:48:45.534Z,36.90
2018-06-09T15:51:14.114Z,37.00
2018-06-09T15:53:42.579Z,37.00
2018-06-09T15:56:13.626Z,37.00
2018-06-09T15:58:43.653Z,37.00
2018-06-09T16:01:12.479Z,37.00
2018-06-09T16:03:43.594Z,37.10
2018-06-09T16:06:12.097Z,37.10
2018-06-09T16:08:40.538Z,37.20
2018-06-09T16:11:09.099Z,37.30
2018-06-09T16:13:37.699Z,37.30
2018-06-09T16:16:06.579Z,37.20
2018-06-09T16:18:35.026Z,37.50
2018-06-09T16:23:33.080Z,37.50
2018-06-09T16:26:02.127Z,37.70
2018-06-09T16:28:30.591Z,37.70
2018-06-09T16:30:59.049Z,37.80
2018-06-09T16:33:27.816Z,37.90
2018-06-09T16:35:56.317Z,37.80
2018-06-09T16:38:24.837Z,37.90
2018-06-09T16:40:53.435Z,37.90
2018-06-09T16:43:22.159Z,38.00
2018-06-09T16:45:50.765Z,38.10
2018-06-09T16:48:19.432Z,38.10
2018-06-09T16:50:47.931Z,38.10
2018-06-09T16:53:16.430Z,38.10
2018-06-09T16:55:44.915Z,38.10
2018-06-09T16:58:14.007Z,38.10
2018-06-09T17:00:43.887Z,38.10
2018-06-09T17:03:12.424Z,38.20
2018-06-09T17:05:40.879Z,38.10
2018-06-09T17:08:09.663Z,38.10
2018-06-09T17:10:38.159Z,38.10
2018-06-09T17:13:07.907Z,38.10
2018-06-09T17:15:43.746Z,38.10
2018-06-09T17:18:12.371Z,38.10
2018-06-09T17:20:40.901Z,38.10
2018-06-09T17:23:09.387Z,38.10
2018-06-09T17:25:37.882Z,38.10
2018-06-09T17:28:06.309Z,38.00
2018-06-09T17:30:34.771Z,38.00
2018-06-09T17:33:03.433Z,37.90
2018-06-09T17:35:31.894Z,37.90
2018-06-09T17:40:28.468Z,37.90
2018-06-09T17:42:56.975Z,37.90
2018-06-09T17:45:25.431Z,37.90
2018-06-09T17:47:53.909Z,37.90
2018-06-09T17:50:22.741Z,37.90
2018-06-09T17:52:51.157Z,37.90
2018-06-09T17:55:19.560Z,37.80
2018-06-09T17:57:48.060Z,37.90
2018-06-09T18:00:16.489Z,38.10
2018-06-09T18:02:44.978Z,38.10
2018-06-09T18:05:13.615Z,38.10
2018-06-09T18:07:42.084Z,38.70
2018-06-09T18:10:10.857Z,38.20
2018-06-09T18:12:39.313Z,38.30
2018-06-09T18:15:08.798Z,38.30
2018-06-09T18:17:37.273Z,38.30
2018-06-09T18:20:05.753Z,38.30
2018-06-09T18:22:34.241Z,38.20
2018-06-09T18:25:02.975Z,38.20
2018-06-09T18:27:31.785Z,38.20
2018-06-09T18:30:00.351Z,38.30
2018-06-09T18:32:29.018Z,38.30
2018-06-09T18:34:57.593Z,38.30
2018-06-09T18:37:26.187Z,38.40
2018-06-09T18:39:54.619Z,38.40
2018-06-09T18:42:23.061Z,38.40
2018-06-09T18:44:51.544Z,38.50
2018-06-09T18:47:19.978Z,38.50
2018-06-09T18:49:48.494Z,38.60
2018-06-09T18:52:17.194Z,38.60
2018-06-09T18:54:45.844Z,38.60
2018-06-09T18:57:14.316Z,38.60
2018-06-09T18:59:42.815Z,38.60
2018-06-09T19:02:11.248Z,38.70
2018-06-09T19:04:39.725Z,38.70
2018-06-09T19:07:08.163Z,38.70
2018-06-09T19:09:36.641Z,38.70
2018-06-09T19:12:05.144Z,38.90
2018-06-09T19:14:33.699Z,38.90
2018-06-09T19:17:02.416Z,38.80
2018-06-09T19:19:30.902Z,38.90
2018-06-09T19:21:59.427Z,39.50
2018-06-09T19:24:27.867Z,39.00
2018-06-09T19:26:56.310Z,39.00
2018-06-09T19:29:24.798Z,39.10
2018-06-09T19:31:53.234Z,39.00
2018-06-09T19:34:21.734Z,39.00
2018-06-09T19:36:50.193Z,38.90
2018-06-09T19:39:18.615Z,39.00
2018-06-09T19:41:47.406Z,38.90
2018-06-09T19:44:16.029Z,38.90
2018-06-09T19:46:44.512Z,38.90
2018-06-09T19:49:12.942Z,38.90
2018-06-09T19:51:41.411Z,38.80
2018-06-09T19:54:09.898Z,38.90
2018-06-09T19:56:38.383Z,39.10
2018-06-09T19:59:06.850Z,39.20
2018-06-09T20:01:35.366Z,39.20
2018-06-09T20:04:03.808Z,39.30
2018-06-09T20:06:32.322Z,39.40
2018-06-09T20:09:00.877Z,39.40
2018-06-09T20:11:29.382Z,39.50
2018-06-09T20:13:57.934Z,39.60
2018-06-09T20:16:26.367Z,39.60
2018-06-09T20:18:54.854Z,39.70
2018-06-09T20:21:23.400Z,39.70
2018-06-09T20:23:51.897Z,39.80
2018-06-09T20:26:20.338Z,39.70
2018-06-09T20:28:48.845Z,39.80
2018-06-09T20:31:17.302Z,40.00
2018-06-09T20:33:45.790Z,39.80
2018-06-09T20:36:14.290Z,39.80
2018-06-09T20:38:42.798Z,39.70
2018-06-09T20:41:11.262Z,39.70
2018-06-09T20:43:40.121Z,39.70
2018-06-09T20:46:08.607Z,39.80
2018-06-09T20:48:37.042Z,39.70
2018-06-09T20:51:05.534Z,39.70
2018-06-09T20:53:34.015Z,39.70
2018-06-09T20:56:02.524Z,39.70
2018-06-09T20:58:36.374Z,39.70
2018-06-09T21:01:04.894Z,39.70
2018-06-09T21:03:33.469Z,39.70
2018-06-09T21:06:02.071Z,39.80
2018-06-09T21:08:30.456Z,39.70
2018-06-09T21:10:58.976Z,39.80
2018-06-09T21:13:27.483Z,39.70
2018-06-09T21:15:56.010Z,39.90
2018-06-09T21:18:24.451Z,39.90
2018-06-09T21:20:53.048Z,40.00
2018-06-09T21:23:21.557Z,40.00
2018-06-09T21:25:50.065Z,40.00
2018-06-09T21:28:23.956Z,40.10
2018-06-09T21:30:57.947Z,40.70
2018-06-09T21:33:43.141Z,40.20
2018-06-09T21:36:13.836Z,40.20
2018-06-09T21:38:47.763Z,40.30
2018-06-09T21:41:21.690Z,40.40
2018-06-09T21:43:52.791Z,40.30
2018-06-09T21:46:26.491Z,40.30
2018-06-09T21:48:55.023Z,40.30
2018-06-09T21:51:23.508Z,40.40
2018-06-09T21:53:52.060Z,40.50
2018-06-09T21:56:20.561Z,41.10
2018-06-09T21:58:49.011Z,40.60
2018-06-09T22:01:17.615Z,40.60
2018-06-09T22:03:46.294Z,40.60
2018-06-09T22:06:14.743Z,40.60
2018-06-09T22:08:43.238Z,40.50
2018-06-09T22:11:11.735Z,40.60
2018-06-09T22:13:40.310Z,40.60
2018-06-09T22:16:08.794Z,40.60
2018-06-09T22:18:37.316Z,40.50
2018-06-09T22:21:05.818Z,40.40
2018-06-09T22:23:34.545Z,40.50
2018-06-09T22:26:03.251Z,41.10
2018-06-09T22:28:31.735Z,40.50
2018-06-09T22:31:00.374Z,40.40
2018-06-09T22:33:29.005Z,40.50
2018-06-09T22:35:57.661Z,40.60
2018-06-09T22:38:26.219Z,40.60
2018-06-09T22:40:54.951Z,40.60
2018-06-09T22:43:23.552Z,40.70
2018-06-09T22:45:52.148Z,40.70
2018-06-09T22:48:20.712Z,40.70
2018-06-09T22:50:49.278Z,40.80
2018-06-09T22:53:17.813Z,40.70
2018-06-09T22:55:46.327Z,40.80
2018-06-09T22:58:14.982Z,40.90
2018-06-09T23:00:48.741Z,41.00
2018-06-09T23:03:17.954Z,41.10
2018-06-09T23:05:46.952Z,41.10
2018-06-09T23:08:16.150Z,41.20
2018-06-09T23:10:45.567Z,41.30
2018-06-09T23:13:14.137Z,41.40
2018-06-09T23:15:43.512Z,41.60
2018-06-09T23:18:12.173Z,41.60
2018-06-09T23:20:40.730Z,41.60
2018-06-09T23:23:09.325Z,41.70
2018-06-09T23:25:37.861Z,41.70
2018-06-09T23:28:06.430Z,41.70
2018-06-09T23:30:34.953Z,41.70
2018-06-09T23:33:04.536Z,41.80
2018-06-09T23:35:33.249Z,41.60
2018-06-09T23:38:01.894Z,41.70
2018-06-09T23:40:30.433Z,41.90
2018-06-09T23:42:59.013Z,41.90
2018-06-09T23:45:27.579Z,42.00
2018-06-09T23:47:56.132Z,42.10
2018-06-09T23:50:24.784Z,42.20
2018-06-09T23:52:53.424Z,42.20
2018-06-09T23:55:21.962Z,42.20
2018-06-09T23:57:50.530Z,42.20
